Time;durP1;ratioP1;P1;durP2;ratioP2;P2;SDS_P1;SDS_P2;PMS_P1;PMS_P2;Temp;Humidity;BMP_temperature;BMP_pressure;BME280_temperature;BME280_humidity;BME280_pressure;Samples;Min_cycle;Max_cycle;Signal;HPM_P1;HPM_P2
2021/10/30 00:00:55;;;;;;;10.10;3.67;;;;;;;;;;143751;591;45022;-84
2021/10/30 00:03:29;;;;;;;8.40;4.30;;;;;;;;;;143749;581;45918;-84
2021/10/30 00:06:07;;;;;;;7.22;4.22;;;;;;;;;;143752;612;45020;-91
2021/10/30 00:08:46;;;;;;;6.40;3.85;;;;;;;;;;143755;606;45021;-89
2021/10/30 00:11:18;;;;;;;7.18;4.20;;;;;;;;;;143753;583;45023;-89
2021/10/30 00:13:54;;;;;;;7.15;4.10;;;;;;;;;;143751;571;45917;-90
2021/10/30 00:16:21;;;;;;;4.90;3.40;;;;;;;;;;143750;675;47021;-89
2021/10/30 00:18:48;;;;;;;8.50;4.30;;;;;;;;;;143752;578;45020;-87
2021/10/30 00:21:30;;;;;;;6.60;4.28;;;;;;;;;;143747;604;47022;-87
2021/10/30 00:24:06;;;;;;;8.70;3.78;;;;;;;;;;143747;573;45920;-89
2021/10/30 00:26:47;;;;;;;9.25;4.80;;;;;;;;;;143748;618;46020;-89
2021/10/30 00:29:24;;;;;;;9.55;4.20;;;;;;;;;;143749;578;46018;-90
2021/10/30 00:31:55;;;;;;;12.18;4.93;;;;;;;;;;143744;567;47021;-89
2021/10/30 00:34:34;;;;;;;11.25;5.10;;;;;;;;;;143747;577;46010;-90
2021/10/30 00:37:01;;;;;;;13.90;4.75;;;;;;;;;;143748;605;47020;-88
2021/10/30 00:39:31;;;;;;;8.88;4.70;;;;;;;;;;143751;592;46010;-87
2021/10/30 00:41:58;;;;;;;7.68;4.35;;;;;;;;;;143747;655;47022;-87
2021/10/30 00:44:25;;;;;;;9.00;5.12;;;;;;;;;;143746;597;47020;-88
2021/10/30 00:46:53;;;;;;;10.60;5.87;;;;;;;;;;143751;627;46020;-87
2021/10/30 00:49:21;;;;;;;12.25;5.80;;;;;;;;;;143751;612;46018;-88
2021/10/30 00:51:57;;;;;;;6.78;5.03;;;;;;;;;;143751;621;46028;-89
2021/10/30 00:54:26;;;;;;;7.25;5.97;;;;;;;;;;143748;553;47020;-89
2021/10/30 00:56:57;;;;;;;12.37;6.15;;;;;;;;;;143737;614;46020;-89
2021/10/30 00:59:24;;;;;;;6.70;5.35;;;;;;;;;;143751;576;45021;-87
2021/10/30 01:01:52;;;;;;;9.80;5.00;;;;;;;;;;143746;566;47020;-87
2021/10/30 01:04:19;;;;;;;13.73;6.00;;;;;;;;;;143748;608;45917;-89
2021/10/30 01:06:48;;;;;;;7.10;5.60;;;;;;;;;;143747;610;47020;-90
2021/10/30 01:09:17;;;;;;;13.20;6.45;;;;;;;;;;143751;595;45021;-88
2021/10/30 01:11:43;;;;;;;10.35;6.97;;;;;;;;;;143746;608;47020;-88
2021/10/30 01:14:11;;;;;;;9.07;6.43;;;;;;;;;;143747;572;45917;-89
2021/10/30 01:16:38;;;;;;;15.93;6.43;;;;;;;;;;143749;573;45584;-90
2021/10/30 01:19:05;;;;;;;6.82;5.60;;;;;;;;;;143749;579;46020;-88
2021/10/30 01:21:34;;;;;;;12.37;6.60;;;;;;;;;;143744;587;48020;-89
2021/10/30 01:24:06;;;;;;;9.13;6.40;;;;;;;;;;143748;579;45918;-88
2021/10/30 01:26:33;;;;;;;11.82;6.47;;;;;;;;;;143749;669;46020;-89
2021/10/30 01:29:02;;;;;;;13.60;6.78;;;;;;;;;;143748;594;46020;-89
2021/10/30 01:31:29;;;;;;;11.52;6.55;;;;;;;;;;143748;572;45030;-90
2021/10/30 01:33:56;;;;;;;9.35;5.05;;;;;;;;;;143745;571;47020;-88
2021/10/30 01:36:23;;;;;;;19.42;6.50;;;;;;;;;;143747;623;46020;-91
2021/10/30 01:38:51;;;;;;;11.15;5.12;;;;;;;;;;143750;572;45034;-90
2021/10/30 01:41:21;;;;;;;11.23;5.97;;;;;;;;;;143750;623;47047;-88
2021/10/30 01:43:48;;;;;;;8.00;5.65;;;;;;;;;;143736;612;46020;-89
2021/10/30 01:46:17;;;;;;;9.20;5.35;;;;;;;;;;143750;648;46021;-90
2021/10/30 01:48:44;;;;;;;12.05;5.97;;;;;;;;;;143749;586;46018;-88
2021/10/30 01:51:11;;;;;;;13.18;6.20;;;;;;;;;;143749;583;47021;-88
2021/10/30 01:53:38;;;;;;;9.75;6.07;;;;;;;;;;143747;588;46918;-89
2021/10/30 01:56:06;;;;;;;10.85;7.10;;;;;;;;;;143748;677;47020;-88
2021/10/30 01:58:33;;;;;;;12.45;6.03;;;;;;;;;;143748;733;46010;-87
2021/10/30 02:01:01;;;;;;;9.32;5.70;;;;;;;;;;143749;649;47021;-90
2021/10/30 02:03:30;;;;;;;9.57;5.68;;;;;;;;;;143746;610;46917;-88
2021/10/30 02:05:58;;;;;;;9.27;6.05;;;;;;;;;;143747;578;47020;-90
2021/10/30 02:08:25;;;;;;;10.07;5.62;;;;;;;;;;143749;590;46010;-90
2021/10/30 02:10:53;;;;;;;14.80;6.70;;;;;;;;;;143748;618;46020;-88
2021/10/30 02:13:21;;;;;;;8.55;6.25;;;;;;;;;;143747;684;45917;-90
2021/10/30 02:15:47;;;;;;;11.18;6.40;;;;;;;;;;143748;587;47020;-88
2021/10/30 02:18:14;;;;;;;11.93;5.95;;;;;;;;;;143738;627;46010;-87
2021/10/30 02:20:42;;;;;;;12.07;6.50;;;;;;;;;;143749;713;47020;-88
2021/10/30 02:23:08;;;;;;;13.73;7.53;;;;;;;;;;143747;641;46021;-88
2021/10/30 02:25:35;;;;;;;10.32;6.28;;;;;;;;;;143735;569;47020;-89
2021/10/30 02:28:02;;;;;;;16.08;6.43;;;;;;;;;;143750;619;46010;-88
2021/10/30 02:30:28;;;;;;;12.95;6.62;;;;;;;;;;143735;596;47022;-88
2021/10/30 02:32:55;;;;;;;14.82;5.57;;;;;;;;;;143747;569;45917;-89
2021/10/30 02:35:25;;;;;;;16.23;6.28;;;;;;;;;;143746;612;47020;-90
2021/10/30 02:37:52;;;;;;;9.10;6.45;;;;;;;;;;143749;609;46021;-89
2021/10/30 02:40:19;;;;;;;9.10;6.55;;;;;;;;;;143750;684;46020;-89
2021/10/30 02:42:50;;;;;;;13.75;7.10;;;;;;;;;;143747;591;45917;-89
2021/10/30 02:45:17;;;;;;;13.00;6.12;;;;;;;;;;143749;569;47021;-87
2021/10/30 02:47:43;;;;;;;14.48;6.65;;;;;;;;;;143751;603;45020;-88
2021/10/30 02:50:10;;;;;;;14.02;6.30;;;;;;;;;;143746;573;47020;-89
2021/10/30 02:52:37;;;;;;;13.13;6.97;;;;;;;;;;143748;589;45917;-89
2021/10/30 02:55:04;;;;;;;11.18;6.15;;;;;;;;;;143750;566;46048;-90
2021/10/30 02:57:31;;;;;;;11.48;6.85;;;;;;;;;;143751;575;45021;-87
2021/10/30 02:59:58;;;;;;;18.92;6.18;;;;;;;;;;143747;570;47022;-89
2021/10/30 03:02:26;;;;;;;10.18;6.00;;;;;;;;;;143747;708;46020;-87
2021/10/30 03:04:53;;;;;;;15.05;6.25;;;;;;;;;;143751;584;46048;-87
2021/10/30 03:07:22;;;;;;;13.82;5.65;;;;;;;;;;143750;649;46018;-88
2021/10/30 03:09:50;;;;;;;15.52;6.50;;;;;;;;;;143748;601;47020;-89
2021/10/30 03:12:18;;;;;;;8.50;5.22;;;;;;;;;;143744;569;48010;-88
2021/10/30 03:14:45;;;;;;;8.98;5.65;;;;;;;;;;143747;639;46021;-89
2021/10/30 03:17:11;;;;;;;8.90;5.47;;;;;;;;;;143752;575;47020;-86
2021/10/30 03:19:38;;;;;;;15.90;6.87;;;;;;;;;;143747;603;47022;-87
2021/10/30 03:22:05;;;;;;;12.40;6.07;;;;;;;;;;143745;648;46010;-88
2021/10/30 03:24:32;;;;;;;11.05;5.75;;;;;;;;;;143747;604;47020;-86
2021/10/30 03:26:59;;;;;;;10.52;5.68;;;;;;;;;;143750;628;46010;-88
2021/10/30 03:29:26;;;;;;;10.30;5.82;;;;;;;;;;143747;689;47022;-89
2021/10/30 03:31:52;;;;;;;9.80;5.70;;;;;;;;;;143747;574;45919;-90
2021/10/30 03:34:19;;;;;;;11.82;6.03;;;;;;;;;;143748;564;46020;-88
2021/10/30 03:36:47;;;;;;;6.30;5.28;;;;;;;;;;143748;570;46011;-88
2021/10/30 03:39:15;;;;;;;11.23;5.12;;;;;;;;;;143749;583;46028;-88
2021/10/30 03:41:42;;;;;;;11.77;6.18;;;;;;;;;;143748;601;45918;-89
2021/10/30 03:44:09;;;;;;;16.67;6.68;;;;;;;;;;143750;634;46020;-87
2021/10/30 03:46:36;;;;;;;7.55;5.37;;;;;;;;;;143749;586;46010;-88
2021/10/30 03:49:02;;;;;;;10.00;5.57;;;;;;;;;;143746;607;47022;-88
2021/10/30 03:51:29;;;;;;;14.25;5.07;;;;;;;;;;143746;576;46010;-88
2021/10/30 03:53:56;;;;;;;10.77;5.82;;;;;;;;;;143748;590;47020;-89
2021/10/30 03:56:24;;;;;;;12.50;5.53;;;;;;;;;;143749;582;46010;-91
2021/10/30 03:58:51;;;;;;;13.45;5.65;;;;;;;;;;143746;603;47022;-88
2021/10/30 04:01:17;;;;;;;12.10;5.43;;;;;;;;;;143747;595;46010;-90
2021/10/30 04:03:45;;;;;;;10.77;4.55;;;;;;;;;;143749;629;46020;-90
2021/10/30 04:06:12;;;;;;;8.68;5.28;;;;;;;;;;143750;622;45021;-87
2021/10/30 04:08:39;;;;;;;9.00;5.22;;;;;;;;;;143747;569;47020;-87
2021/10/30 04:11:08;;;;;;;6.68;5.12;;;;;;;;;;143747;577;46010;-89
2021/10/30 04:13:34;;;;;;;10.15;5.80;;;;;;;;;;143746;593;47020;-87
2021/10/30 04:16:01;;;;;;;13.10;5.68;;;;;;;;;;143750;696;45021;-89
2021/10/30 04:18:28;;;;;;;9.98;5.60;;;;;;;;;;143745;609;47022;-88
2021/10/30 04:20:55;;;;;;;11.02;5.55;;;;;;;;;;143747;693;45918;-87
2021/10/30 04:23:21;;;;;;;11.35;5.18;;;;;;;;;;143747;551;47021;-88
2021/10/30 04:25:48;;;;;;;8.23;4.93;;;;;;;;;;143750;585;46010;-88
2021/10/30 04:28:14;;;;;;;11.23;6.15;;;;;;;;;;143747;585;47022;-86
2021/10/30 04:30:41;;;;;;;10.45;4.85;;;;;;;;;;143748;592;45918;-87
2021/10/30 04:33:13;;;;;;;13.85;5.55;;;;;;;;;;143748;605;47020;-87
2021/10/30 04:35:42;;;;;;;12.18;5.78;;;;;;;;;;143751;626;45021;-88
2021/10/30 04:38:09;;;;;;;18.12;5.53;;;;;;;;;;143744;578;47020;-86
2021/10/30 04:40:35;;;;;;;10.73;6.28;;;;;;;;;;143745;634;46010;-89
2021/10/30 04:43:04;;;;;;;14.00;5.87;;;;;;;;;;143746;590;46020;-87
2021/10/30 04:45:31;;;;;;;10.18;5.97;;;;;;;;;;143747;593;45021;-89
2021/10/30 04:47:58;;;;;;;14.68;6.62;;;;;;;;;;143746;571;46022;-89
2021/10/30 04:50:25;;;;;;;14.30;6.57;;;;;;;;;;143747;655;45917;-89
2021/10/30 04:52:52;;;;;;;14.02;5.43;;;;;;;;;;143747;665;46021;-90
2021/10/30 04:55:19;;;;;;;16.40;5.95;;;;;;;;;;143746;591;46010;-89
2021/10/30 04:57:45;;;;;;;14.10;6.25;;;;;;;;;;143748;578;46021;-89
2021/10/30 05:00:13;;;;;;;13.68;6.10;;;;;;;;;;143745;581;45917;-89
2021/10/30 05:02:43;;;;;;;8.00;5.20;;;;;;;;;;143742;608;47020;-89
2021/10/30 05:05:10;;;;;;;11.15;5.78;;;;;;;;;;143746;572;47020;-91
2021/10/30 05:07:36;;;;;;;7.35;5.30;;;;;;;;;;143745;583;47023;-89
2021/10/30 05:10:04;;;;;;;9.73;5.78;;;;;;;;;;143748;622;45917;-90
2021/10/30 05:12:30;;;;;;;7.00;4.90;;;;;;;;;;143747;620;47019;-89
2021/10/30 05:14:57;;;;;;;18.17;7.00;;;;;;;;;;143749;569;45021;-89
2021/10/30 05:17:24;;;;;;;14.95;6.28;;;;;;;;;;143746;725;46022;-89
2021/10/30 05:19:52;;;;;;;8.60;5.62;;;;;;;;;;143744;571;46917;-91
2021/10/30 05:22:20;;;;;;;9.43;5.53;;;;;;;;;;143749;667;46039;-88
2021/10/30 05:24:47;;;;;;;12.80;6.43;;;;;;;;;;143747;564;46018;-89
2021/10/30 05:27:15;;;;;;;10.73;5.90;;;;;;;;;;143747;610;47020;-88
2021/10/30 05:29:43;;;;;;;15.48;6.22;;;;;;;;;;143731;582;46011;-89
2021/10/30 05:32:09;;;;;;;11.88;6.97;;;;;;;;;;143745;604;45022;-91
2021/10/30 05:34:36;;;;;;;12.32;8.25;;;;;;;;;;143747;619;46010;-91
2021/10/30 05:37:04;;;;;;;16.37;9.20;;;;;;;;;;143746;570;47021;-90
2021/10/30 05:39:44;;;;;;;12.15;9.73;;;;;;;;;;143743;564;46010;-89
2021/10/30 05:42:13;;;;;;;12.68;8.82;;;;;;;;;;143747;570;46010;-89
2021/10/30 05:44:40;;;;;;;13.70;7.68;;;;;;;;;;143749;569;45021;-88
2021/10/30 05:47:08;;;;;;;11.75;7.22;;;;;;;;;;143745;589;47020;-91
2021/10/30 05:49:40;;;;;;;12.30;8.48;;;;;;;;;;143744;611;46917;-89
2021/10/30 05:52:09;;;;;;;15.80;8.90;;;;;;;;;;143744;577;47021;-90
2021/10/30 05:54:38;;;;;;;11.80;7.82;;;;;;;;;;143748;557;46018;-88
2021/10/30 05:57:09;;;;;;;14.23;7.97;;;;;;;;;;143745;568;47020;-88
2021/10/30 05:59:37;;;;;;;14.32;10.82;;;;;;;;;;143745;613;45918;-88
2021/10/30 06:02:05;;;;;;;17.70;9.38;;;;;;;;;;143746;570;47020;-91
2021/10/30 06:04:36;;;;;;;23.48;10.68;;;;;;;;;;143747;583;46010;-87
2021/10/30 06:07:06;;;;;;;15.18;9.35;;;;;;;;;;143744;575;47021;-89
2021/10/30 06:09:33;;;;;;;19.90;8.25;;;;;;;;;;143744;613;46917;-89
2021/10/30 06:12:00;;;;;;;18.45;9.30;;;;;;;;;;143746;617;46020;-88
2021/10/30 06:14:27;;;;;;;15.68;8.30;;;;;;;;;;143748;570;45021;-87
2021/10/30 06:16:54;;;;;;;18.67;9.88;;;;;;;;;;143745;569;47020;-87
2021/10/30 06:19:21;;;;;;;12.88;9.15;;;;;;;;;;143743;567;46917;-87
2021/10/30 06:21:50;;;;;;;10.77;6.80;;;;;;;;;;143747;570;46021;-88
2021/10/30 06:24:17;;;;;;;11.48;7.72;;;;;;;;;;143749;577;45020;-89
2021/10/30 06:26:51;;;;;;;11.93;7.30;;;;;;;;;;143747;641;47020;-88
2021/10/30 06:29:18;;;;;;;10.15;8.30;;;;;;;;;;143745;624;46011;-88
2021/10/30 06:31:45;;;;;;;14.32;9.32;;;;;;;;;;143745;589;47020;-86
2021/10/30 06:34:12;;;;;;;13.07;8.25;;;;;;;;;;143747;586;46010;-86
2021/10/30 06:36:39;;;;;;;24.00;13.55;;;;;;;;;;143746;569;47023;-84
2021/10/30 06:39:06;;;;;;;23.55;14.98;;;;;;;;;;143743;660;47020;-86
2021/10/30 06:41:34;;;;;;;22.65;15.63;;;;;;;;;;143742;587;47020;-86
2021/10/30 06:44:01;;;;;;;35.85;15.55;;;;;;;;;;143748;564;46010;-86
2021/10/30 06:46:28;;;;;;;22.23;14.73;;;;;;;;;;143746;654;46022;-86
2021/10/30 06:48:56;;;;;;;29.35;18.23;;;;;;;;;;143746;572;46917;-86
2021/10/30 06:51:24;;;;;;;26.80;16.50;;;;;;;;;;143745;581;47021;-86
2021/10/30 06:53:51;;;;;;;27.65;16.58;;;;;;;;;;143747;571;46010;-87
2021/10/30 06:56:18;;;;;;;23.62;16.40;;;;;;;;;;143744;589;47022;-85
2021/10/30 06:58:47;;;;;;;26.25;15.63;;;;;;;;;;143735;585;46010;-86
2021/10/30 07:01:16;;;;;;;25.75;15.52;;;;;;;;;;143733;574;47020;-85
2021/10/30 07:03:43;;;;;;;28.38;14.68;;;;;;;;;;143748;614;46010;-86
2021/10/30 07:06:11;;;;;;;27.25;16.95;;;;;;;;;;143742;622;47021;-86
2021/10/30 07:08:38;;;;;;;24.83;16.80;;;;;;;;;;143745;582;46020;-85
2021/10/30 07:11:06;;;;;;;28.08;16.40;;;;;;;;;;143746;585;47020;-86
2021/10/30 07:13:33;;;;;;;22.55;15.02;;;;;;;;;;143748;590;45021;-86
2021/10/30 07:16:00;;;;;;;22.17;15.43;;;;;;;;;;143743;597;47020;-84
2021/10/30 07:18:27;;;;;;;28.65;18.02;;;;;;;;;;143745;613;46010;-87
2021/10/30 07:20:54;;;;;;;37.95;19.05;;;;;;;;;;143746;565;47021;-87
2021/10/30 07:23:21;;;;;;;33.13;15.82;;;;;;;;;;143749;582;46018;-83
2021/10/30 07:25:48;;;;;;;22.45;14.85;;;;;;;;;;143743;583;47022;-83
2021/10/30 07:28:15;;;;;;;21.23;12.48;;;;;;;;;;143745;615;46917;-83
2021/10/30 07:30:43;;;;;;;35.38;12.88;;;;;;;;;;143746;606;47020;-85
2021/10/30 07:33:10;;;;;;;18.08;12.45;;;;;;;;;;143748;575;45020;-85
2021/10/30 07:35:38;;;;;;;22.05;14.80;;;;;;;;;;143749;589;46048;-85
2021/10/30 07:38:07;;;;;;;28.77;16.17;;;;;;;;;;143747;600;45917;-86
2021/10/30 07:40:35;;;;;;;22.92;13.15;;;;;;;;;;143735;564;47020;-87
2021/10/30 07:43:07;;;;;;;15.00;8.23;;;;;;;;;;143751;564;46021;-87
2021/10/30 07:45:35;;;;;;;19.80;7.53;;;;;;;;;;143748;578;46020;-87
2021/10/30 07:48:14;;;;;;;16.75;8.75;;;;;;;;;;143744;590;47020;-87
2021/10/30 07:50:49;;;;;;;16.12;7.78;;;;;;;;;;143744;586;47021;-87
2021/10/30 07:53:22;;;;;;;17.30;7.35;;;;;;;;;;143748;595;45020;-84
2021/10/30 07:55:48;;;;;;;;;;;;;;;;;;143752;982;47022;-86
2021/10/30 07:58:15;;;;;;;15.93;9.30;;;;;;;;;;143749;578;46021;-87
2021/10/30 08:00:48;;;;;;;17.50;9.10;;;;;;;;;;143734;564;47020;-86
2021/10/30 08:03:23;;;;;;;19.23;9.40;;;;;;;;;;143749;581;47018;-88
2021/10/30 08:05:57;;;;;;;13.10;8.90;;;;;;;;;;143746;570;47023;-90
2021/10/30 08:08:24;;;;;;;11.45;8.35;;;;;;;;;;143745;631;46010;-89
2021/10/30 08:11:01;;;;;;;13.27;8.35;;;;;;;;;;143746;570;47020;-88
2021/10/30 08:13:29;;;;;;;12.77;8.38;;;;;;;;;;143749;590;46021;-86
2021/10/30 08:15:56;;;;;;;15.20;9.82;;;;;;;;;;143745;593;47020;-88
2021/10/30 08:18:24;;;;;;;15.23;9.85;;;;;;;;;;143745;570;46917;-86
2021/10/30 08:20:54;;;;;;;15.30;9.95;;;;;;;;;;143745;564;46021;-85
2021/10/30 08:23:21;;;;;;;16.42;10.70;;;;;;;;;;143745;575;46010;-85
2021/10/30 08:25:47;;;;;;;18.70;10.30;;;;;;;;;;143735;576;47020;-86
2021/10/30 08:28:15;;;;;;;22.50;12.27;;;;;;;;;;143745;579;46917;-87
2021/10/30 08:30:43;;;;;;;19.17;13.45;;;;;;;;;;143747;564;46020;-87
2021/10/30 08:33:11;;;;;;;17.48;12.13;;;;;;;;;;143738;590;46012;-85
2021/10/30 08:35:38;;;;;;;19.20;11.18;;;;;;;;;;143745;566;47021;-84
2021/10/30 08:38:09;;;;;;;18.55;12.45;;;;;;;;;;143745;589;46020;-84
2021/10/30 08:40:41;;;;;;;17.62;11.85;;;;;;;;;;143734;569;47020;-84
2021/10/30 08:43:21;;;;;;;22.40;14.90;;;;;;;;;;143747;641;47021;-86
2021/10/30 08:45:50;;;;;;;29.35;15.35;;;;;;;;;;143743;580;47022;-82
2021/10/30 08:48:22;;;;;;;18.35;13.07;;;;;;;;;;143744;569;46010;-83
2021/10/30 08:50:50;;;;;;;17.37;13.50;;;;;;;;;;143745;589;47021;-83
2021/10/30 08:53:20;;;;;;;15.93;11.93;;;;;;;;;;143747;588;46020;-84
2021/10/30 08:55:51;;;;;;;16.55;11.27;;;;;;;;;;143732;653;47020;-84
2021/10/30 08:58:20;;;;;;;13.98;9.82;;;;;;;;;;143731;593;47013;-82
2021/10/30 09:00:53;;;;;;;18.08;13.52;;;;;;;;;;143746;578;46020;-84
2021/10/30 09:03:22;;;;;;;21.37;12.80;;;;;;;;;;143737;578;47019;-84
2021/10/30 09:05:51;;;;;;;25.12;15.80;;;;;;;;;;143747;580;47023;-87
2021/10/30 09:08:26;;;;;;;27.45;15.10;;;;;;;;;;143732;651;46012;-85
2021/10/30 09:11:01;;;;;;;26.00;14.85;;;;;;;;;;143744;593;46020;-86
2021/10/30 09:13:33;;;;;;;29.12;15.95;;;;;;;;;;143747;591;46010;-85
2021/10/30 09:16:19;;;;;;;;;;;;;;;;;;;;;
2021/10/30 09:18:48;;;;;;;20.58;11.90;;;;;;;;;;143745;586;45917;-87
2021/10/30 09:21:17;;;;;;;20.67;13.90;;;;;;;;;;143734;590;47020;-85
2021/10/30 09:24:14;;;;;;;21.05;11.55;;;;;;;;;;143737;575;46020;-87
2021/10/30 09:26:51;;;;;;;13.25;10.57;;;;;;;;;;143734;592;47022;-87
2021/10/30 09:29:19;;;;;;;13.25;10.57;;;;;;;;;;143746;599;46020;-88
2021/10/30 09:32:06;;;;;;;26.75;10.77;;;;;;;;;;143746;600;46020;-86
2021/10/30 09:34:34;;;;;;;15.30;11.85;;;;;;;;;;143748;569;46010;-87
2021/10/30 09:37:01;;;;;;;25.02;14.45;;;;;;;;;;143745;614;46010;-87
2021/10/30 09:39:28;;;;;;;25.10;14.98;;;;;;;;;;143746;587;46917;-88
2021/10/30 09:41:57;;;;;;;32.70;16.67;;;;;;;;;;143744;576;47021;-88
2021/10/30 09:44:27;;;;;;;23.98;15.30;;;;;;;;;;143749;579;46038;-89
2021/10/30 09:47:35;;;;;;;22.52;15.50;;;;;;;;;;143744;576;47020;-86
2021/10/30 09:50:02;;;;;;;21.65;14.60;;;;;;;;;;143743;637;46917;-88
2021/10/30 09:52:29;;;;;;;23.73;16.70;;;;;;;;;;143744;588;47020;-85
2021/10/30 09:54:56;;;;;;;24.52;16.15;;;;;;;;;;143737;575;46012;-86
2021/10/30 09:57:33;;;;;;;21.98;15.52;;;;;;;;;;143743;575;47021;-86
2021/10/30 10:00:02;;;;;;;30.35;16.83;;;;;;;;;;143746;588;45915;-84
2021/10/30 10:02:33;;;;;;;23.98;15.60;;;;;;;;;;143743;653;47020;-85
2021/10/30 10:05:02;;;;;;;25.42;16.48;;;;;;;;;;143745;581;46010;-86
2021/10/30 10:07:35;;;;;;;24.10;17.00;;;;;;;;;;143744;569;47022;-87
2021/10/30 10:10:02;;;;;;;35.55;17.77;;;;;;;;;;143745;609;46020;-85
2021/10/30 10:12:34;;;;;;;30.83;19.25;;;;;;;;;;143744;671;47021;-87
2021/10/30 10:15:02;;;;;;;26.80;17.90;;;;;;;;;;143749;617;45020;-86
2021/10/30 10:17:32;;;;;;;28.73;18.70;;;;;;;;;;143744;576;47022;-85
2021/10/30 10:20:03;;;;;;;32.00;21.02;;;;;;;;;;143745;569;45915;-85
2021/10/30 10:22:32;;;;;;;29.98;21.77;;;;;;;;;;143743;603;47020;-88
2021/10/30 10:25:33;;;;;;;33.40;20.67;;;;;;;;;;143747;573;46018;-86
2021/10/30 10:28:38;;;;;;;37.28;22.92;;;;;;;;;;143746;566;47025;-86
2021/10/30 10:31:46;;;;;;;34.22;25.62;;;;;;;;;;143745;581;46010;-87
2021/10/30 10:34:15;;;;;;;36.20;25.58;;;;;;;;;;143747;580;46021;-86
2021/10/30 10:36:46;;;;;;;34.22;22.27;;;;;;;;;;143749;585;46018;-87
2021/10/30 10:39:15;;;;;;;34.67;23.85;;;;;;;;;;143746;600;46022;-87
2021/10/30 10:41:54;;;;;;;31.33;20.73;;;;;;;;;;143744;621;46021;-86
2021/10/30 10:45:03;;;;;;;30.77;21.00;;;;;;;;;;143746;569;47020;-87
2021/10/30 10:47:58;;;;;;;31.17;20.27;;;;;;;;;;143747;569;46018;-86
2021/10/30 10:50:49;;;;;;;34.67;22.25;;;;;;;;;;143747;570;47023;-87
2021/10/30 10:53:17;;;;;;;36.33;21.23;;;;;;;;;;143747;604;46048;-86
2021/10/30 10:56:07;;;;;;;27.73;20.85;;;;;;;;;;143744;572;47020;-89
2021/10/30 10:59:03;;;;;;;31.87;22.45;;;;;;;;;;143747;570;46020;-89
2021/10/30 11:01:31;;;;;;;48.65;24.83;;;;;;;;;;143748;588;46020;-88
2021/10/30 11:04:10;;;;;;;24.83;14.90;;;;;;;;;;143745;602;46915;-89
2021/10/30 11:06:41;;;;;;;16.77;9.50;;;;;;;;;;143734;587;46020;-88
2021/10/30 11:09:13;;;;;;;9.90;8.50;;;;;;;;;;143749;578;45032;-88
2021/10/30 11:11:40;;;;;;;16.35;11.82;;;;;;;;;;143746;587;47022;-89
2021/10/30 11:14:11;;;;;;;12.70;10.48;;;;;;;;;;143746;601;46020;-88
2021/10/30 11:16:44;;;;;;;12.45;9.25;;;;;;;;;;143746;579;47020;-88
2021/10/30 11:19:27;;;;;;;23.90;10.50;;;;;;;;;;143751;577;46021;-90
2021/10/30 11:22:14;;;;;;;16.02;11.60;;;;;;;;;;143746;666;47022;-89
2021/10/30 11:24:54;;;;;;;13.82;10.50;;;;;;;;;;143745;636;46020;-90
2021/10/30 11:27:21;;;;;;;16.65;10.10;;;;;;;;;;143744;616;47021;-88
2021/10/30 11:29:49;;;;;;;15.05;9.90;;;;;;;;;;143748;631;46010;-88
2021/10/30 11:32:16;;;;;;;15.82;10.85;;;;;;;;;;143732;582;47022;-89
2021/10/30 11:34:55;;;;;;;9.10;6.97;;;;;;;;;;143746;594;46042;-88
2021/10/30 11:37:22;;;;;;;12.20;9.15;;;;;;;;;;143746;682;47020;-89
2021/10/30 11:39:49;;;;;;;15.48;10.00;;;;;;;;;;143749;727;46010;-88
2021/10/30 11:42:16;;;;;;;14.80;10.70;;;;;;;;;;143744;637;48021;-88
2021/10/30 11:44:54;;;;;;;12.45;10.65;;;;;;;;;;143747;582;46041;-89
2021/10/30 11:47:28;;;;;;;16.02;12.15;;;;;;;;;;143731;604;47020;-88
2021/10/30 11:49:56;;;;;;;28.83;21.70;;;;;;;;;;143749;590;46018;-89
2021/10/30 11:52:25;;;;;;;47.03;33.88;;;;;;;;;;143747;575;47022;-87
2021/10/30 11:54:59;;;;;;;25.77;16.25;;;;;;;;;;143747;635;46020;-87
2021/10/30 11:57:26;;;;;;;22.17;14.32;;;;;;;;;;143747;573;47021;-89
2021/10/30 12:00:05;;;;;;;18.50;12.43;;;;;;;;;;143750;576;45020;-88
2021/10/30 12:02:32;;;;;;;24.05;11.82;;;;;;;;;;143748;651;46022;-88
2021/10/30 12:05:12;;;;;;;16.98;10.52;;;;;;;;;;143746;614;46915;-88
2021/10/30 12:07:43;;;;;;;21.95;11.57;;;;;;;;;;143748;586;46020;-88
2021/10/30 12:10:11;;;;;;;22.62;13.48;;;;;;;;;;143750;570;45021;-90
2021/10/30 12:12:38;;;;;;;12.32;10.48;;;;;;;;;;143748;565;46023;-89
2021/10/30 12:15:07;;;;;;;15.20;11.00;;;;;;;;;;143746;569;45915;-88
2021/10/30 12:17:36;;;;;;;17.20;13.13;;;;;;;;;;143745;611;47020;-88
2021/10/30 12:20:11;;;;;;;25.42;13.52;;;;;;;;;;143750;612;45026;-89
2021/10/30 12:22:43;;;;;;;20.52;14.95;;;;;;;;;;143746;588;47022;-89
2021/10/30 12:25:16;;;;;;;24.70;14.80;;;;;;;;;;143748;637;45915;-88
2021/10/30 12:27:55;;;;;;;20.83;12.55;;;;;;;;;;143748;682;46020;-88
2021/10/30 12:30:38;;;;;;;15.82;12.25;;;;;;;;;;143750;670;46010;-90
2021/10/30 12:33:13;;;;;;;17.70;13.75;;;;;;;;;;143747;589;47022;-88
2021/10/30 12:35:45;;;;;;;18.10;12.30;;;;;;;;;;143747;580;46020;-89
2021/10/30 12:38:17;;;;;;;22.25;12.93;;;;;;;;;;143746;613;47020;-90
2021/10/30 12:40:47;;;;;;;49.97;33.95;;;;;;;;;;143739;569;46021;-88
2021/10/30 12:43:22;;;;;;;34.90;26.50;;;;;;;;;;143735;671;46022;-88
2021/10/30 12:45:58;;;;;;;25.73;20.33;;;;;;;;;;143747;594;46010;-89
2021/10/30 12:48:36;;;;;;;21.27;15.18;;;;;;;;;;143748;569;47021;-90
2021/10/30 12:51:05;;;;;;;21.23;13.48;;;;;;;;;;143740;574;46012;-88
2021/10/30 12:53:35;;;;;;;32.60;25.23;;;;;;;;;;143746;605;47022;-90
2021/10/30 12:56:14;;;;;;;17.02;13.60;;;;;;;;;;143748;570;46916;-90
2021/10/30 12:58:45;;;;;;;16.25;11.57;;;;;;;;;;143747;576;47020;-91
2021/10/30 13:01:22;;;;;;;13.60;12.20;;;;;;;;;;143750;588;46010;-89
2021/10/30 13:04:09;;;;;;;20.02;12.80;;;;;;;;;;143744;611;47022;-90
2021/10/30 13:06:43;;;;;;;27.30;13.93;;;;;;;;;;143747;571;46914;-91
2021/10/30 13:09:16;;;;;;;16.10;13.02;;;;;;;;;;143751;653;46020;-91
2021/10/30 13:11:43;;;;;;;22.92;14.80;;;;;;;;;;143750;627;46012;-89
2021/10/30 13:14:11;;;;;;;18.67;14.45;;;;;;;;;;143748;581;47020;-88
2021/10/30 13:16:39;;;;;;;14.70;11.32;;;;;;;;;;143747;570;45915;-89
2021/10/30 13:19:09;;;;;;;18.48;11.43;;;;;;;;;;143748;564;46049;-89
2021/10/30 13:21:37;;;;;;;23.50;13.05;;;;;;;;;;143741;591;46012;-91
2021/10/30 13:24:05;;;;;;;15.77;11.98;;;;;;;;;;143731;624;47021;-90
2021/10/30 13:26:37;;;;;;;14.60;11.45;;;;;;;;;;143731;597;46915;-90
2021/10/30 13:29:04;;;;;;;13.20;10.52;;;;;;;;;;143732;612;47020;-89
2021/10/30 13:31:33;;;;;;;20.58;14.00;;;;;;;;;;143735;607;46020;-90
2021/10/30 13:34:01;;;;;;;18.00;13.15;;;;;;;;;;143732;603;47023;-92
2021/10/30 13:36:28;;;;;;;17.98;12.60;;;;;;;;;;143732;577;46012;-90
2021/10/30 13:38:57;;;;;;;19.95;13.05;;;;;;;;;;143734;584;47020;-89
2021/10/30 13:41:27;;;;;;;18.08;14.05;;;;;;;;;;143736;627;46021;-90
2021/10/30 13:43:57;;;;;;;13.75;10.55;;;;;;;;;;143732;593;47022;-89
2021/10/30 13:46:24;;;;;;;12.50;10.75;;;;;;;;;;143733;610;47021;-90
2021/10/30 13:48:52;;;;;;;25.48;19.35;;;;;;;;;;143735;581;47020;-89
2021/10/30 13:51:23;;;;;;;23.35;17.80;;;;;;;;;;143734;573;46020;-91
2021/10/30 13:53:50;;;;;;;18.55;13.38;;;;;;;;;;143732;571;47022;-90
2021/10/30 13:56:20;;;;;;;18.77;12.30;;;;;;;;;;143732;565;46012;-92
2021/10/30 13:58:53;;;;;;;22.02;15.98;;;;;;;;;;143735;600;47020;-90
2021/10/30 14:01:20;;;;;;;17.87;15.47;;;;;;;;;;143736;603;47019;-91
2021/10/30 14:03:49;;;;;;;13.00;11.63;;;;;;;;;;143731;569;47023;-92
2021/10/30 14:06:19;;;;;;;16.98;13.43;;;;;;;;;;143734;652;46048;-88
2021/10/30 14:08:47;;;;;;;22.20;15.02;;;;;;;;;;143734;593;47020;-89
2021/10/30 14:11:18;;;;;;;22.90;13.57;;;;;;;;;;143735;585;46012;-91
2021/10/30 14:13:45;;;;;;;18.50;12.55;;;;;;;;;;143732;602;47020;-92
2021/10/30 14:16:13;;;;;;;14.57;10.52;;;;;;;;;;143733;612;46020;-93
2021/10/30 14:18:45;;;;;;;16.73;12.40;;;;;;;;;;143731;632;47020;-88
2021/10/30 14:21:13;;;;;;;17.00;13.50;;;;;;;;;;143741;566;46012;-89
2021/10/30 14:23:42;;;;;;;19.20;13.07;;;;;;;;;;143747;567;47022;-87
2021/10/30 14:26:11;;;;;;;20.52;15.25;;;;;;;;;;143747;633;45916;-90
2021/10/30 14:28:39;;;;;;;17.80;13.62;;;;;;;;;;143748;591;47020;-89
2021/10/30 14:31:07;;;;;;;25.25;20.50;;;;;;;;;;143751;572;45020;-90
2021/10/30 14:33:34;;;;;;;61.37;39.97;;;;;;;;;;143736;619;47020;-89
2021/10/30 14:36:02;;;;;;;73.72;45.05;;;;;;;;;;143747;570;45915;-91
2021/10/30 14:38:29;;;;;;;24.77;19.73;;;;;;;;;;143737;610;47020;-88
2021/10/30 14:40:56;;;;;;;24.85;17.52;;;;;;;;;;143751;624;45021;-91
2021/10/30 14:43:25;;;;;;;27.98;20.85;;;;;;;;;;143736;582;46913;-90